Time;durP1;ratioP1;P1;durP2;ratioP2;P2;SDS_P1;SDS_P2;PMS_P1;PMS_P2;Temp;Humidity;BMP_temperature;BMP_pressure;BME280_temperature;BME280_humidity;BME280_pressure;Samples;Min_cycle;Max_cycle;Signal;HPM_P1;HPM_P2
2021/12/15 05:00:59;;;;;;;85.63;31.98;;;5.90;99.90;;;;;;5580196;23;91671;-76
2021/12/15 05:03:25;;;;;;;80.47;29.88;;;5.90;99.90;;;;;;4879214;28;89259;-75
2021/12/15 05:05:51;;;;;;;83.78;30.38;;;5.90;99.90;;;;;;4880438;28;90274;-76
2021/12/15 05:08:17;;;;;;;90.13;32.40;;;5.90;99.90;;;;;;4879113;28;91736;-76
2021/12/15 05:10:43;;;;;;;91.63;34.00;;;5.90;99.90;;;;;;4880074;28;89267;-76
2021/12/15 05:13:10;;;;;;;94.40;33.83;;;5.90;99.90;;;;;;4880888;28;90242;-76
2021/12/15 05:15:36;;;;;;;83.05;32.30;;;5.80;99.90;;;;;;4878940;28;91941;-77
2021/12/15 05:18:04;;;;;;;86.60;32.67;;;5.90;99.90;;;;;;4878938;28;92888;-76
2021/12/15 05:20:32;;;;;;;86.97;32.13;;;5.90;99.90;;;;;;4880279;28;89701;-77
2021/12/15 05:23:01;;;;;;;93.78;33.95;;;5.90;99.90;;;;;;4879105;28;89402;-76
2021/12/15 05:25:27;;;;;;;88.10;32.70;;;5.90;99.90;;;;;;4878940;28;91780;-77
2021/12/15 05:27:52;;;;;;;89.53;32.42;;;5.90;99.90;;;;;;4881444;28;89473;-77
2021/12/15 05:30:19;;;;;;;90.60;33.17;;;5.90;99.90;;;;;;4881555;28;90129;-77
2021/12/15 05:32:45;;;;;;;93.78;32.42;;;5.90;99.90;;;;;;4881268;28;89450;-77
2021/12/15 05:35:16;;;;;;;90.30;32.90;;;5.90;99.90;;;;;;4882018;28;89924;-77
2021/12/15 05:37:53;;;;;;;90.93;32.95;;;5.90;99.90;;;;;;4880061;28;92979;-81
2021/12/15 05:40:19;;;;;;;90.47;31.90;;;5.90;99.90;;;;;;4884130;28;90807;-78
2021/12/15 05:42:44;;;;;;;84.22;31.00;;;5.90;99.90;;;;;;4883826;28;89308;-78
2021/12/15 05:45:11;;;;;;;85.30;31.98;;;5.90;99.90;;;;;;4883367;28;89324;-79
2021/12/15 05:47:36;;;;;;;92.38;32.88;;;5.90;99.90;;;;;;4883540;28;90565;-78
2021/12/15 05:50:06;;;;;;;87.32;31.90;;;5.90;99.90;;;;;;4883631;28;90233;-78
2021/12/15 05:52:31;;;;;;;85.85;32.88;;;6.00;99.90;;;;;;4883406;28;89610;-78
2021/12/15 05:54:58;;;;;;;96.60;34.42;;;5.90;99.90;;;;;;4883481;28;89696;-79
2021/12/15 05:57:25;;;;;;;93.78;34.55;;;5.90;99.90;;;;;;4883192;28;90030;-78
2021/12/15 05:59:50;;;;;;;96.93;35.33;;;5.90;99.90;;;;;;4883292;28;90421;-78
2021/12/15 06:02:16;;;;;;;101.40;34.00;;;5.90;99.90;;;;;;4882768;28;90623;-78
2021/12/15 06:04:42;;;;;;;91.65;33.63;;;5.90;99.90;;;;;;4882992;28;90174;-78
2021/12/15 06:07:07;;;;;;;93.93;32.92;;;5.90;99.90;;;;;;4883120;28;89323;-79
2021/12/15 06:09:34;;;;;;;106.47;35.03;;;6.00;99.90;;;;;;4882854;28;89248;-78
2021/12/15 06:12:00;;;;;;;105.53;35.08;;;6.00;99.90;;;;;;4883473;28;89348;-78
2021/12/15 06:14:28;;;;;;;96.90;32.35;;;6.00;99.90;;;;;;4882663;28;89929;-78
2021/12/15 06:17:06;;;;;;;109.05;35.22;;;6.00;99.90;;;;;;4882943;28;89303;-78
2021/12/15 06:19:33;;;;;;;107.95;33.65;;;6.00;99.90;;;;;;4881353;28;92178;-79
2021/12/15 06:21:59;;;;;;;110.30;35.60;;;6.00;99.90;;;;;;4881442;28;89321;-78
2021/12/15 06:24:25;;;;;;;102.78;34.10;;;6.00;99.90;;;;;;4882683;28;89351;-78
2021/12/15 06:26:51;;;;;;;101.03;32.80;;;6.00;99.90;;;;;;4882433;28;90178;-78
2021/12/15 06:29:17;;;;;;;93.85;32.38;;;6.00;99.90;;;;;;4882920;28;89827;-78
2021/12/15 06:31:43;;;;;;;101.95;32.60;;;6.00;99.90;;;;;;4882732;28;89323;-78
2021/12/15 06:34:09;;;;;;;94.97;31.48;;;6.00;99.90;;;;;;4882652;28;89402;-79
2021/12/15 06:36:35;;;;;;;101.90;31.52;;;6.00;99.90;;;;;;4883185;28;89818;-78
2021/12/15 06:39:05;;;;;;;100.32;30.58;;;6.00;99.90;;;;;;4883892;28;89528;-79
2021/12/15 06:41:30;;;;;;;109.20;33.05;;;6.00;99.90;;;;;;4883701;28;89425;-78
2021/12/15 06:43:58;;;;;;;111.32;33.00;;;6.00;99.90;;;;;;4883301;28;88950;-78
2021/12/15 06:57:30;;;;;;;99.75;31.27;;;6.10;99.90;;;;;;4886489;28;89401;-78
2021/12/15 07:00:14;;;;;;;103.60;32.63;;;6.00;99.90;;;;;;4880365;28;89395;-77
2021/12/15 07:02:40;;;;;;;107.32;32.38;;;6.00;99.90;;;;;;4880382;28;89762;-78
2021/12/15 07:05:08;;;;;;;112.18;33.58;;;6.00;99.90;;;;;;4882002;28;89112;-78
2021/12/15 07:07:34;;;;;;;106.20;33.38;;;6.10;99.90;;;;;;4880011;28;90919;-78
2021/12/15 07:10:00;;;;;;;109.18;33.45;;;6.00;99.90;;;;;;4882534;28;89936;-78
2021/12/15 07:12:26;;;;;;;107.60;34.10;;;6.00;99.90;;;;;;4882265;28;89469;-78
2021/12/15 07:14:51;;;;;;;106.57;33.88;;;6.00;99.90;;;;;;4880742;28;92916;-78
2021/12/15 07:17:21;;;;;;;107.97;32.83;;;6.00;99.90;;;;;;4881645;28;90932;-78
2021/12/15 07:20:27;;;;;;;122.68;36.05;;;6.00;99.90;;;;;;4882323;28;91019;-78
2021/12/15 07:22:48;;;;;;;105.85;33.80;;;6.00;99.90;;;;;;4881441;28;89593;-78
2021/12/15 07:25:14;;;;;;;112.88;35.30;;;6.10;99.90;;;;;;4880314;28;91446;-77
2021/12/15 07:27:41;;;;;;;111.47;33.83;;;6.10;99.90;;;;;;4880562;28;91818;-78
2021/12/15 07:30:07;;;;;;;102.00;33.53;;;6.10;99.90;;;;;;4881762;28;89803;-78
2021/12/15 07:32:34;;;;;;;97.68;32.47;;;6.10;99.90;;;;;;4881893;28;89364;-78
2021/12/15 07:35:00;;;;;;;103.82;30.98;;;6.10;99.90;;;;;;4882043;28;89191;-78
2021/12/15 07:37:25;;;;;;;101.57;31.77;;;6.10;99.90;;;;;;4882364;28;89563;-77
2021/12/15 07:39:57;;;;;;;109.97;31.80;;;6.10;99.90;;;;;;4881803;28;89706;-78
2021/12/15 07:42:32;;;;;;;104.22;32.65;;;6.10;99.90;;;;;;4873481;28;90255;-77
2021/12/15 07:44:59;;;;;;;102.38;32.42;;;6.10;99.90;;;;;;4871915;28;90296;-78
2021/12/15 07:47:24;;;;;;;93.88;29.63;;;6.10;99.90;;;;;;4871850;28;89434;-78
2021/12/15 07:49:50;;;;;;;105.38;31.58;;;6.10;99.90;;;;;;4873269;28;89172;-77
2021/12/15 07:52:16;;;;;;;101.07;32.58;;;6.20;99.90;;;;;;4871003;28;89388;-78
2021/12/15 07:54:41;;;;;;;103.82;32.42;;;6.20;99.90;;;;;;4869997;28;93280;-78
2021/12/15 07:57:16;;;;;;;98.40;32.15;;;6.20;99.90;;;;;;4872519;28;89970;-78
2021/12/15 07:59:41;;;;;;;101.78;32.30;;;6.20;99.90;;;;;;4871567;28;89713;-78
2021/12/15 08:02:07;;;;;;;102.90;31.85;;;6.20;99.90;;;;;;4872891;28;89392;-78
2021/12/15 08:04:32;;;;;;;93.35;32.17;;;6.30;99.90;;;;;;4872187;28;89905;-78
2021/12/15 08:06:58;;;;;;;91.40;30.80;;;6.30;99.90;;;;;;4871894;28;91441;-78
2021/12/15 08:09:24;;;;;;;84.60;28.73;;;6.30;99.90;;;;;;4871756;28;89406;-79
2021/12/15 08:11:50;;;;;;;84.40;28.55;;;6.30;99.90;;;;;;4879133;28;89308;-78
2021/12/15 08:14:16;;;;;;;83.95;29.38;;;6.40;99.90;;;;;;4871153;28;92622;-78
2021/12/15 08:16:42;;;;;;;78.95;27.30;;;6.40;99.90;;;;;;4871362;28;89389;-77
2021/12/15 08:19:08;;;;;;;73.70;27.38;;;6.50;99.90;;;;;;4872231;28;89722;-78
2021/12/15 08:21:36;;;;;;;79.38;26.83;;;6.60;99.90;;;;;;4869845;28;89212;-78
2021/12/15 08:24:02;;;;;;;73.10;27.42;;;6.60;99.90;;;;;;4871696;28;89478;-78
2021/12/15 08:26:27;;;;;;;75.28;27.38;;;6.70;99.90;;;;;;4873035;28;90336;-78
2021/12/15 08:28:54;;;;;;;73.88;27.92;;;6.70;99.90;;;;;;4868668;28;89956;-78
2021/12/15 08:31:20;;;;;;;75.63;27.65;;;6.80;99.90;;;;;;4869559;28;90377;-78
2021/12/15 08:33:45;;;;;;;71.07;27.38;;;6.80;99.90;;;;;;4871596;28;89755;-78
2021/12/15 08:36:13;;;;;;;81.68;29.85;;;6.80;99.90;;;;;;4870027;28;89347;-78
2021/12/15 08:38:41;;;;;;;76.70;28.15;;;6.90;99.90;;;;;;4862556;29;90314;-77
2021/12/15 08:41:20;;;;;;;75.50;28.27;;;7.00;99.90;;;;;;4862105;29;89254;-77
2021/12/15 08:43:45;;;;;;;71.30;27.85;;;6.90;99.90;;;;;;4861953;29;89803;-77
2021/12/15 08:46:18;;;;;;;76.13;28.35;;;7.00;99.90;;;;;;4862067;29;90256;-78
2021/12/15 08:48:45;;;;;;;67.28;26.10;;;7.00;99.90;;;;;;4862591;28;90124;-78
2021/12/15 08:51:13;;;;;;;64.07;25.95;;;7.10;99.90;;;;;;4862178;28;89261;-78
2021/12/15 08:53:41;;;;;;;59.40;24.38;;;7.10;99.90;;;;;;4877435;28;93080;-78
2021/12/15 08:56:08;;;;;;;64.35;26.08;;;7.20;99.90;;;;;;4881072;28;91068;-78
2021/12/15 08:58:34;;;;;;;63.88;26.63;;;7.30;99.90;;;;;;4875040;28;92933;-78
2021/12/15 09:01:00;;;;;;;64.72;26.48;;;7.30;99.90;;;;;;4901098;28;91047;-80
2021/12/15 09:03:27;;;;;;;63.42;25.77;;;7.30;99.90;;;;;;4877015;28;90319;-81
2021/12/15 09:05:54;;;;;;;66.38;26.55;;;7.40;99.90;;;;;;4905256;28;95318;-82
2021/12/15 09:08:22;;;;;;;58.95;25.17;;;7.40;99.90;;;;;;4870150;28;91787;-82
2021/12/15 09:10:48;;;;;;;58.22;25.23;;;7.50;99.90;;;;;;4873549;28;90539;-81
2021/12/15 09:13:14;;;;;;;57.33;25.05;;;7.50;99.90;;;;;;4873571;28;90248;-81
2021/12/15 09:15:42;;;;;;;52.38;24.23;;;7.50;99.90;;;;;;4870088;28;92020;-81
2021/12/15 09:18:09;;;;;;;53.38;24.33;;;7.70;99.90;;;;;;4872816;28;91462;-81
2021/12/15 09:20:36;;;;;;;51.78;23.25;;;7.70;99.90;;;;;;4869487;28;90200;-81
2021/12/15 09:23:08;;;;;;;53.17;24.08;;;7.70;99.90;;;;;;4863591;29;89687;-82
2021/12/15 09:25:34;;;;;;;53.90;24.30;;;7.70;99.90;;;;;;4863490;29;90501;-82
2021/12/15 09:28:00;;;;;;;56.67;25.95;;;7.60;99.90;;;;;;4862857;29;89212;-83
2021/12/15 09:30:29;;;;;;;53.65;25.17;;;7.60;99.90;;;;;;4865131;29;89688;-80
2021/12/15 09:32:54;;;;;;;53.13;24.42;;;7.70;99.90;;;;;;4870805;28;90306;-81
2021/12/15 09:35:22;;;;;;;51.72;23.73;;;7.70;99.90;;;;;;4899669;28;92954;-81
2021/12/15 09:37:48;;;;;;;49.00;23.48;;;7.80;99.90;;;;;;4891089;28;90305;-81
2021/12/15 09:40:16;;;;;;;51.05;23.27;;;7.80;99.90;;;;;;4881157;28;89339;-82
2021/12/15 09:42:42;;;;;;;45.47;21.25;;;7.80;99.90;;;;;;4875172;28;89276;-83
2021/12/15 09:45:43;;;;;;;41.80;20.58;;;7.90;99.90;;;;;;4882713;28;93773;-82
2021/12/15 10:02:09;;;;;;;45.78;22.52;;;8.00;99.90;;;;;;4890381;28;89013;-81
2021/12/15 10:17:21;;;;;;;39.92;19.63;;;8.30;99.90;;;;;;4880807;28;90159;-81
2021/12/15 10:18:07;;;;;;;38.80;18.48;;;8.40;99.90;;;;;;4873025;28;90229;-81
2021/12/15 10:20:37;;;;;;;40.00;19.48;;;8.40;99.90;;;;;;4871895;28;91632;-80
2021/12/15 10:23:08;;;;;;;33.92;17.70;;;8.50;99.90;;;;;;4876565;28;89242;-81
2021/12/15 10:25:43;;;;;;;36.95;18.85;;;8.50;99.90;;;;;;4870229;28;89867;-80
2021/12/15 10:28:13;;;;;;;33.45;17.55;;;8.50;99.90;;;;;;4876785;28;90433;-81
2021/12/15 10:30:41;;;;;;;33.72;17.95;;;8.50;99.90;;;;;;4875505;28;89837;-80
2021/12/15 10:33:15;;;;;;;30.33;16.77;;;8.60;99.90;;;;;;4897962;28;89383;-80
2021/12/15 10:35:44;;;;;;;32.00;17.50;;;8.60;99.90;;;;;;4879667;28;91691;-80
2021/12/15 10:38:17;;;;;;;35.35;17.05;;;8.70;99.90;;;;;;4883281;28;92959;-80
2021/12/15 10:40:48;;;;;;;30.17;16.45;;;8.80;99.90;;;;;;4883911;28;92798;-80
2021/12/15 10:43:15;;;;;;;34.95;18.40;;;8.90;99.90;;;;;;4888507;28;89342;-80
2021/12/15 10:45:45;;;;;;;38.83;19.08;;;9.00;99.90;;;;;;4878173;28;92746;-80
2021/12/15 10:48:23;;;;;;;35.05;18.15;;;8.90;99.90;;;;;;4880348;28;89250;-80
2021/12/15 10:50:49;;;;;;;33.17;17.90;;;8.90;99.90;;;;;;4873563;28;93271;-80
2021/12/15 10:53:27;;;;;;;34.05;17.75;;;8.80;99.90;;;;;;4876441;28;89321;-81
2021/12/15 10:55:53;;;;;;;33.25;18.75;;;8.80;99.90;;;;;;4877110;28;89061;-81
2021/12/15 10:58:33;;;;;;;33.97;18.10;;;8.80;99.90;;;;;;4876419;28;89935;-80
2021/12/15 11:01:00;;;;;;;30.90;16.98;;;8.80;99.90;;;;;;4876415;28;90200;-80
2021/12/15 11:03:38;;;;;;;32.35;16.92;;;8.70;99.90;;;;;;4874817;28;90295;-80
2021/12/15 11:06:32;;;;;;;27.10;15.52;;;8.70;99.90;;;;;;4870611;28;91832;-80
2021/12/15 11:09:14;;;;;;;28.38;15.95;;;8.80;99.90;;;;;;4868711;28;89286;-80
2021/12/15 11:11:56;;;;;;;30.25;16.67;;;8.80;99.90;;;;;;4874300;28;90168;-80
2021/12/15 11:14:29;;;;;;;29.88;16.30;;;8.80;99.90;;;;;;4875664;28;89261;-80
2021/12/15 11:17:04;;;;;;;28.55;16.30;;;8.90;99.90;;;;;;4879237;28;93095;-80
2021/12/15 11:19:43;;;;;;;28.15;16.35;;;9.00;99.90;;;;;;4903429;28;90723;-80
2021/12/15 11:22:47;;;;;;;24.52;14.77;;;9.00;99.90;;;;;;4873758;28;92490;-80
2021/12/15 11:25:35;;;;;;;26.27;15.35;;;9.10;99.90;;;;;;4873795;28;89410;-80
2021/12/15 11:28:10;;;;;;;25.50;14.50;;;9.00;99.90;;;;;;4876145;28;89440;-80
2021/12/15 11:30:41;;;;;;;27.60;15.40;;;9.00;99.90;;;;;;4877901;28;91381;-80
2021/12/15 11:33:38;;;;;;;22.75;13.75;;;9.10;99.90;;;;;;4880797;28;91216;-78
2021/12/15 11:36:10;;;;;;;20.60;12.73;;;9.10;99.90;;;;;;4867833;28;89503;-79
2021/12/15 11:38:35;;;;;;;23.35;14.32;;;9.20;99.90;;;;;;4871941;28;90290;-78
2021/12/15 11:41:12;;;;;;;23.30;13.70;;;9.20;99.90;;;;;;4869799;28;91355;-79
2021/12/15 11:43:42;;;;;;;24.35;13.73;;;9.20;99.90;;;;;;4876270;28;89990;-79
2021/12/15 11:46:19;;;;;;;24.70;13.73;;;9.30;99.90;;;;;;4868823;28;89580;-79
2021/12/15 11:48:48;;;;;;;21.88;12.90;;;9.40;99.90;;;;;;4871804;28;92375;-80
2021/12/15 11:51:14;;;;;;;20.27;12.75;;;9.40;99.90;;;;;;4869833;28;90549;-79
2021/12/15 11:53:46;;;;;;;21.67;12.52;;;9.50;99.90;;;;;;4870020;28;89685;-80
2021/12/15 11:56:26;;;;;;;18.27;11.68;;;9.50;99.90;;;;;;4874058;28;90529;-79
2021/12/15 11:59:14;;;;;;;20.65;12.10;;;9.50;99.90;;;;;;4872245;28;89655;-79
2021/12/15 12:01:44;;;;;;;22.05;12.38;;;9.40;99.90;;;;;;4870026;28;90816;-79
2021/12/15 12:04:15;;;;;;;20.63;12.98;;;9.30;99.90;;;;;;4869881;28;89508;-79
2021/12/15 12:06:41;;;;;;;23.23;12.38;;;9.40;99.90;;;;;;4871854;28;89403;-78
2021/12/15 12:09:07;;;;;;;23.98;13.07;;;9.50;99.90;;;;;;4873803;28;89477;-78
2021/12/15 12:11:34;;;;;;;16.70;10.95;;;9.70;99.90;;;;;;4870561;28;89436;-79
2021/12/15 12:14:00;;;;;;;21.13;11.48;;;9.60;99.90;;;;;;4874523;28;90137;-80
2021/12/15 12:16:26;;;;;;;17.88;10.55;;;9.50;99.90;;;;;;4872929;28;89563;-80
2021/12/15 12:18:53;;;;;;;13.90;9.55;;;9.50;99.90;;;;;;4875746;28;89398;-80
2021/12/15 12:21:20;;;;;;;19.33;10.07;;;9.50;99.90;;;;;;4870873;28;90786;-81
2021/12/15 12:23:49;;;;;;;14.43;8.38;;;9.40;99.90;;;;;;4872028;28;92247;-79
2021/12/15 12:26:16;;;;;;;15.68;9.38;;;9.40;99.90;;;;;;4877089;28;89307;-81
2021/12/15 12:28:45;;;;;;;13.82;8.48;;;9.40;99.90;;;;;;4874094;28;92390;-81
2021/12/15 12:31:22;;;;;;;13.02;8.40;;;9.30;99.90;;;;;;4872032;28;89427;-80
2021/12/15 12:33:49;;;;;;;17.20;10.05;;;9.30;99.90;;;;;;4875549;28;90079;-81
2021/12/15 12:36:28;;;;;;;15.35;8.95;;;9.20;99.90;;;;;;4875411;28;89705;-79
2021/12/15 12:39:37;;;;;;;14.88;9.77;;;9.20;99.90;;;;;;5060949;27;88991;-79
2021/12/15 12:42:03;;;;;;;17.15;10.55;;;9.20;99.90;;;;;;5058534;27;88919;-78
2021/12/15 12:44:39;;;;;;;16.98;9.30;;;9.20;99.90;;;;;;5055833;27;89767;-79
2021/12/15 12:47:21;;;;;;;10.98;7.57;;;9.10;99.90;;;;;;5054680;27;93090;-80
2021/12/15 13:00:55;;;;;;;14.23;8.07;;;9.20;99.90;;;;;;5058099;27;88987;-79
2021/12/15 13:03:38;;;;;;;11.27;7.40;;;9.10;99.90;;;;;;5059151;27;89107;-79
2021/12/15 13:06:15;;;;;;;9.85;5.97;;;9.00;99.90;;;;;;5061038;27;89209;-80
2021/12/15 13:08:45;;;;;;;9.00;6.13;;;9.00;99.90;;;;;;5062808;27;92639;-79
2021/12/15 13:11:17;;;;;;;10.35;6.18;;;9.00;99.90;;;;;;5074577;27;88897;-79
2021/12/15 13:14:03;;;;;;;5.68;4.57;;;9.00;99.90;;;;;;5065441;27;88990;-80
2021/12/15 13:16:57;;;;;;;8.90;4.80;;;9.00;99.90;;;;;;5058135;27;89225;-79
2021/12/15 13:19:40;;;;;;;9.80;5.53;;;9.00;99.90;;;;;;5058437;27;89112;-80
2021/12/15 13:22:21;;;;;;;9.73;4.88;;;8.80;99.90;;;;;;5059150;27;91217;-79
2021/12/15 13:30:57;;;;;;;7.68;4.68;;;8.70;99.90;;;;;;5056115;27;89406;-79
2021/12/15 13:33:36;;;;;;;6.70;4.30;;;8.60;99.90;;;;;;5055058;27;90972;-79
2021/12/15 13:36:22;;;;;;;6.80;4.70;;;8.60;99.90;;;;;;5056575;27;88929;-80
2021/12/15 13:39:07;;;;;;;6.07;4.45;;;8.60;99.90;;;;;;5056393;27;89025;-80
2021/12/15 13:41:47;;;;;;;7.38;4.35;;;8.60;99.90;;;;;;5056220;27;89038;-79
2021/12/15 13:44:29;;;;;;;4.90;3.80;;;8.60;99.90;;;;;;5054081;27;91817;-79
2021/12/15 13:47:01;;;;;;;6.65;4.20;;;8.60;99.90;;;;;;5052123;27;89163;-80
2021/12/15 13:49:32;;;;;;;5.30;4.15;;;8.50;99.90;;;;;;5051011;27;89087;-79
2021/12/15 13:52:16;;;;;;;5.28;3.95;;;8.50;99.90;;;;;;5042586;28;89035;-79
2021/12/15 13:54:41;;;;;;;6.22;4.72;;;8.40;99.90;;;;;;5034785;28;92261;-79
2021/12/15 13:57:13;;;;;;;8.27;4.60;;;8.40;99.90;;;;;;5039961;28;89489;-79
2021/12/15 13:59:45;;;;;;;7.25;4.05;;;8.30;99.90;;;;;;5031543;28;89192;-79
2021/12/15 14:02:13;;;;;;;8.68;4.40;;;8.20;99.90;;;;;;5020998;28;92570;-80
2021/12/15 14:04:45;;;;;;;5.53;3.85;;;8.20;99.90;;;;;;5020811;28;91164;-79
2021/12/15 14:07:28;;;;;;;5.50;4.18;;;8.20;99.90;;;;;;5022310;28;88904;-79
2021/12/15 14:10:18;;;;;;;12.07;5.00;;;8.10;99.90;;;;;;5034429;28;88968;-79
2021/12/15 14:12:49;;;;;;;10.18;4.82;;;8.10;99.90;;;;;;5017483;28;89154;-79
2021/12/15 14:15:25;;;;;;;6.15;4.28;;;8.10;99.90;;;;;;5023840;28;89581;-79
2021/12/15 14:17:59;;;;;;;6.65;4.72;;;8.10;99.90;;;;;;5025892;28;89086;-80
2021/12/15 14:20:26;;;;;;;7.22;4.88;;;8.00;99.90;;;;;;5041079;28;89227;-79
2021/12/15 14:23:01;;;;;;;6.53;5.22;;;8.00;99.90;;;;;;5022635;27;90200;-79
2021/12/15 14:25:27;;;;;;;7.50;5.47;;;7.90;99.90;;;;;;5022011;28;89805;-79
2021/12/15 14:27:53;;;;;;;6.03;4.60;;;7.90;99.90;;;;;;5022353;28;89019;-79
2021/12/15 14:30:20;;;;;;;7.20;4.53;;;7.90;99.90;;;;;;5027107;28;89022;-79
2021/12/15 14:32:45;;;;;;;7.53;4.78;;;7.90;99.90;;;;;;5041783;27;91137;-79
2021/12/15 14:35:20;;;;;;;6.20;4.50;;;7.90;99.90;;;;;;5041399;27;89001;-79
2021/12/15 14:37:46;;;;;;;6.05;4.72;;;7.90;99.90;;;;;;5042133;27;88810;-79
2021/12/15 14:40:12;;;;;;;5.93;4.32;;;7.80;99.90;;;;;;5039744;28;89279;-79
2021/12/15 14:42:42;;;;;;;5.93;4.47;;;7.80;99.90;;;;;;5041714;27;90135;-79
2021/12/15 14:45:09;;;;;;;5.82;4.57;;;7.80;99.90;;;;;;5040172;28;91843;-79
2021/12/15 14:47:39;;;;;;;9.18;4.32;;;7.80;99.90;;;;;;5039746;28;89070;-79
2021/12/15 14:50:08;;;;;;;7.10;4.90;;;7.70;99.90;;;;;;5041842;27;89221;-79
2021/12/15 14:52:37;;;;;;;5.70;4.72;;;7.70;99.90;;;;;;5041564;27;89899;-79
2021/12/15 14:55:08;;;;;;;8.23;4.90;;;7.70;99.90;;;;;;5040369;28;92008;-79
2021/12/15 14:57:35;;;;;;;8.40;6.07;;;7.70;99.90;;;;;;5033801;27;88957;-79
2021/12/15 15:00:10;;;;;;;8.77;5.78;;;7.60;99.90;;;;;;5021408;28;89018;-79
2021/12/15 15:02:41;;;;;;;8.52;6.07;;;7.60;99.90;;;;;;5018912;28;92715;-79
2021/12/15 15:05:09;;;;;;;8.55;5.97;;;7.60;99.90;;;;;;5021954;28;89891;-79
2021/12/15 15:07:38;;;;;;;7.72;5.93;;;7.60;99.90;;;;;;5036432;28;91181;-79
2021/12/15 15:10:08;;;;;;;15.38;9.70;;;7.50;99.90;;;;;;5024094;27;88848;-80
2021/12/15 15:12:37;;;;;;;14.38;8.63;;;7.50;99.90;;;;;;5032693;28;90144;-79
2021/12/15 15:15:11;;;;;;;7.60;5.88;;;7.50;99.90;;;;;;5021046;28;89285;-80
2021/12/15 15:17:50;;;;;;;7.55;5.70;;;7.50;99.90;;;;;;5033848;28;89338;-83
2021/12/15 15:20:18;;;;;;;11.02;7.50;;;7.50;99.90;;;;;;5055683;27;89230;-80
2021/12/15 15:22:46;;;;;;;9.85;7.45;;;7.50;99.90;;;;;;5040073;28;92710;-80
2021/12/15 15:25:15;;;;;;;9.15;7.03;;;7.50;99.90;;;;;;5052122;27;92086;-82
2021/12/15 15:27:45;;;;;;;10.98;7.85;;;7.50;99.90;;;;;;5062584;27;89076;-81
2021/12/15 15:30:14;;;;;;;14.45;7.85;;;7.50;99.90;;;;;;5062414;27;89147;-80
2021/12/15 15:32:42;;;;;;;13.38;7.78;;;7.40;99.90;;;;;;5048561;27;90157;-79
2021/12/15 15:35:34;;;;;;;12.05;7.10;;;7.40;99.90;;;;;;5038107;27;89026;-79
2021/12/15 15:38:04;;;;;;;10.32;7.10;;;7.40;99.90;;;;;;5036699;28;89798;-81
2021/12/15 15:40:38;;;;;;;10.25;6.88;;;7.40;99.90;;;;;;5046787;27;89037;-81
2021/12/15 15:43:08;;;;;;;9.50;7.38;;;7.30;99.90;;;;;;5036995;27;90239;-82
2021/12/15 15:45:45;;;;;;;7.60;6.07;;;7.30;99.90;;;;;;5028222;28;89227;-82
2021/12/15 15:48:15;;;;;;;10.38;5.97;;;7.30;99.90;;;;;;5025566;28;89289;-78
2021/12/15 15:50:45;;;;;;;8.15;5.80;;;7.30;99.90;;;;;;5020250;28;89122;-78
2021/12/15 15:53:12;;;;;;;8.23;5.70;;;7.30;99.90;;;;;;5030250;28;89045;-81
2021/12/15 15:55:42;;;;;;;7.57;5.47;;;7.30;99.90;;;;;;5046658;28;91127;-82
2021/12/15 15:58:09;;;;;;;11.18;7.10;;;7.30;99.90;;;;;;5047314;28;89104;-81
2021/12/15 16:00:42;;;;;;;13.02;7.13;;;7.20;99.90;;;;;;5045769;28;89116;-81
2021/12/15 16:03:10;;;;;;;12.25;7.78;;;7.20;99.90;;;;;;5027395;28;90268;-79
2021/12/15 16:05:36;;;;;;;15.15;6.68;;;7.20;99.90;;;;;;5022317;28;91213;-81
2021/12/15 16:08:03;;;;;;;11.45;7.18;;;7.20;99.90;;;;;;5031060;28;88982;-80
2021/12/15 16:10:30;;;;;;;7.63;5.40;;;7.20;99.90;;;;;;5042534;27;89004;-80
2021/12/15 16:13:00;;;;;;;9.10;6.28;;;7.20;99.90;;;;;;5043242;27;88884;-80
2021/12/15 16:15:53;;;;;;;9.38;5.85;;;7.20;99.90;;;;;;5032215;28;89309;-79
2021/12/15 16:18:33;;;;;;;7.28;5.90;;;7.20;99.90;;;;;;5051481;27;89006;-78
2021/12/15 16:23:31;;;;;;;9.75;6.65;;;7.10;99.90;;;;;;5045308;27;88857;-79
2021/12/15 16:26:05;;;;;;;9.93;5.82;;;7.10;99.90;;;;;;5049913;27;89345;-79
2021/12/15 16:28:34;;;;;;;8.45;6.38;;;7.10;99.90;;;;;;5047804;27;89064;-78
2021/12/15 16:31:02;;;;;;;11.38;6.20;;;7.10;99.90;;;;;;5049553;27;88960;-78
2021/12/15 16:33:37;;;;;;;9.00;5.90;;;7.10;99.90;;;;;;5044401;27;90873;-78
2021/12/15 16:36:05;;;;;;;7.85;6.28;;;7.10;99.90;;;;;;5037208;28;92302;-78
2021/12/15 16:38:41;;;;;;;11.23;6.93;;;7.10;99.90;;;;;;5038581;28;89540;-78
2021/12/15 16:41:09;;;;;;;9.70;6.82;;;7.10;99.90;;;;;;5037128;28;89201;-78
2021/12/15 16:43:49;;;;;;;9.43;6.85;;;7.10;99.90;;;;;;5039094;27;89132;-79
2021/12/15 16:46:31;;;;;;;13.07;7.97;;;7.00;99.90;;;;;;5039503;27;88964;-77
2021/12/15 16:49:02;;;;;;;12.40;8.88;;;7.10;99.90;;;;;;5039174;28;88987;-78
2021/12/15 16:51:28;;;;;;;16.45;10.05;;;7.00;99.90;;;;;;5039354;28;89017;-77
2021/12/15 16:54:02;;;;;;;19.02;10.50;;;7.00;99.90;;;;;;5037441;28;89136;-79
2021/12/15 16:56:39;;;;;;;15.35;10.82;;;7.00;99.90;;;;;;5038696;28;89671;-78
2021/12/15 16:59:10;;;;;;;19.90;11.95;;;7.00;99.90;;;;;;5038570;27;88904;-80
2021/12/15 17:01:38;;;;;;;18.70;12.10;;;7.00;99.90;;;;;;5040246;27;89021;-80
2021/12/15 17:04:04;;;;;;;18.85;11.80;;;7.00;99.90;;;;;;5039248;27;89710;-80
2021/12/15 17:06:31;;;;;;;16.52;10.68;;;6.90;99.90;;;;;;5039798;27;88933;-80
2021/12/15 17:08:57;;;;;;;14.55;9.98;;;6.90;99.90;;;;;;5038865;27;89404;-78
2021/12/15 17:11:23;;;;;;;20.58;11.30;;;6.90;99.90;;;;;;5040217;27;89164;-80
2021/12/15 17:13:51;;;;;;;17.40;11.75;;;6.90;99.90;;;;;;5040300;28;89133;-79
2021/12/15 17:16:25;;;;;;;21.52;12.85;;;6.90;99.90;;;;;;5039811;28;88952;-78
2021/12/15 17:18:51;;;;;;;20.10;12.15;;;6.90;99.90;;;;;;5037679;28;89556;-82
2021/12/15 17:21:24;;;;;;;16.23;10.95;;;6.90;99.90;;;;;;5040152;28;89191;-81
2021/12/15 17:24:01;;;;;;;17.73;10.48;;;6.80;99.90;;;;;;5039427;27;89797;-81
2021/12/15 17:26:30;;;;;;;16.02;9.25;;;6.80;99.90;;;;;;5047542;28;89089;-81
2021/12/15 17:29:12;;;;;;;15.07;9.50;;;6.80;99.90;;;;;;5047827;28;88919;-80
2021/12/15 17:31:43;;;;;;;11.65;8.88;;;6.80;99.90;;;;;;5052437;27;88886;-81
2021/12/15 17:34:10;;;;;;;13.05;8.52;;;6.80;99.90;;;;;;5051927;27;90175;-82
2021/12/15 17:36:38;;;;;;;13.25;9.45;;;6.80;99.90;;;;;;5049425;28;91358;-78
2021/12/15 17:39:21;;;;;;;21.73;14.10;;;6.70;99.90;;;;;;5045933;28;89046;-78
2021/12/15 17:41:52;;;;;;;16.65;11.63;;;6.70;99.90;;;;;;5049388;27;89050;-79
2021/12/15 17:44:32;;;;;;;21.08;15.50;;;6.80;99.90;;;;;;5050416;27;88904;-80
2021/12/15 17:47:01;;;;;;;20.42;13.48;;;6.70;99.90;;;;;;5047007;27;89727;-79
2021/12/15 17:49:31;;;;;;;23.05;13.88;;;6.70;99.90;;;;;;5043794;28;88937;-79
2021/12/15 17:52:03;;;;;;;18.95;12.07;;;6.80;99.90;;;;;;5040639;28;89142;-79
2021/12/15 17:54:43;;;;;;;17.42;10.70;;;6.80;99.90;;;;;;5041035;27;89625;-79
2021/12/15 17:57:10;;;;;;;14.65;9.75;;;6.80;99.90;;;;;;5040682;28;90883;-79
2021/12/15 17:59:39;;;;;;;13.68;9.75;;;6.70;99.90;;;;;;5042507;27;89126;-79
2021/12/15 18:02:05;;;;;;;13.25;9.85;;;6.80;99.90;;;;;;5042379;28;89019;-78
2021/12/15 18:04:31;;;;;;;15.57;10.57;;;6.70;99.90;;;;;;5042039;27;88960;-79
2021/12/15 18:06:57;;;;;;;19.77;12.95;;;6.70;99.90;;;;;;5041734;27;89217;-79
2021/12/15 18:09:27;;;;;;;16.27;10.32;;;6.70;99.90;;;;;;5042347;28;89020;-78
2021/12/15 18:11:59;;;;;;;16.15;11.13;;;6.70;99.90;;;;;;5040545;28;89167;-78
2021/12/15 18:14:26;;;;;;;15.00;10.60;;;6.60;99.90;;;;;;5041989;28;92386;-78
2021/12/15 18:16:53;;;;;;;15.40;10.68;;;6.70;99.90;;;;;;5044307;27;89096;-80
2021/12/15 18:19:19;;;;;;;14.15;10.57;;;6.60;99.90;;;;;;5041684;28;89059;-78
2021/12/15 18:21:48;;;;;;;15.20;10.77;;;6.60;99.90;;;;;;5038972;28;89305;-78
2021/12/15 18:24:16;;;;;;;13.30;10.40;;;6.60;99.90;;;;;;5041686;27;89637;-81
2021/12/15 18:26:44;;;;;;;15.35;10.48;;;6.60;99.90;;;;;;5041694;28;92799;-78
2021/12/15 18:29:10;;;;;;;15.00;10.20;;;6.60;99.90;;;;;;5042827;28;89099;-79
2021/12/15 18:31:40;;;;;;;13.18;9.80;;;6.60;99.90;;;;;;5045135;28;89089;-81
2021/12/15 18:34:08;;;;;;;12.68;9.52;;;6.50;99.90;;;;;;5043611;28;91814;-81
2021/12/15 18:36:35;;;;;;;15.23;10.07;;;6.50;99.90;;;;;;5043982;28;90716;-80
2021/12/15 18:39:04;;;;;;;13.00;9.75;;;6.50;99.90;;;;;;5044277;28;89482;-80
2021/12/15 18:41:31;;;;;;;11.48;9.15;;;6.50;99.90;;;;;;5045478;28;89028;-80
2021/12/15 18:44:00;;;;;;;14.73;10.57;;;6.50;99.90;;;;;;5044068;28;92530;-83
2021/12/15 18:46:28;;;;;;;13.98;10.38;;;6.50;99.90;;;;;;5045949;28;91062;-80
2021/12/15 18:48:56;;;;;;;18.33;11.13;;;6.50;99.90;;;;;;5044135;28;89093;-80
2021/12/15 18:51:22;;;;;;;13.73;10.05;;;6.50;99.90;;;;;;5045206;28;89328;-80
2021/12/15 18:53:48;;;;;;;15.43;10.35;;;6.40;99.90;;;;;;5044293;27;89110;-81